Private Wetterstation Wechselburg
Wetterdaten: Samstag, 06.03.2021
Datum Zeit Temp. +2m Bodentemp. Temp.+5cm Temp. Wind Windchill X Diff Temp. Feuchte +2m Feuchte +5cm Luftdruck Regen Wind Richtung Richtung Sonnenschein Taupunkt Windchill Windben
06.03.2021 00:00 -3,7 C 5,2 C -4,1 C -4,3 C -5,6 C 0,0 C 82 % 88 % 1033,6 hPa 0,0 l/m 0,0 km/h (0 Bft) W 270 0 min -6,3 C -5,6 C 0,0 km/h (0 Bft)
06.03.2021 00:05 -3,7 C 5,2 C -4,1 C -4,4 C -5,7 C 0,0 C 83 % 88 % 1033,6 hPa 0,0 l/m 0,0 km/h (0 Bft) W 270 0 min -6,2 C -5,7 C 0,0 km/h (0 Bft)
06.03.2021 00:10 -3,7 C 5,2 C -4,1 C -4,3 C -5,6 C 0,0 C 83 % 88 % 1033,6 hPa 0,0 l/m 0,0 km/h (0 Bft) W 270 0 min -6,2 C -5,6 C 0,0 km/h (0 Bft)
06.03.2021 00:15 -3,7 C 5,2 C -4,1 C -4,3 C -5,4 C 0,0 C 83 % 88 % 1033,6 hPa 0,0 l/m 0,0 km/h (0 Bft) W 270 0 min -6,2 C -5,4 C 0,0 km/h (0 Bft)
06.03.2021 00:20 -3,7 C 5,2 C -4,1 C -4,3 C -5,6 C 0,0 C 83 % 88 % 1033,6 hPa 0,0 l/m 0,0 km/h (0 Bft) W 270 0 min -6,2 C -5,6 C 0,0 km/h (0 Bft)
06.03.2021 00:25 -3,7 C 5,2 C -4,1 C -4,3 C -5,6 C 0,0 C 83 % 89 % 1033,6 hPa 0,0 l/m 0,0 km/h (0 Bft) W 270 0 min -6,2 C -5,6 C 0,0 km/h (0 Bft)
06.03.2021 00:30 -3,7 C 5,2 C -4,2 C -4,3 C -5,4 C 0,0 C 83 % 89 % 1033,8 hPa 0,0 l/m 0,0 km/h (0 Bft) W 270 0 min -6,2 C -5,4 C 0,0 km/h (0 Bft)
06.03.2021 00:35 -3,7 C 5,2 C -4,2 C -4,3 C -5,5 C 0,0 C 84 % 89 % 1033,8 hPa 0,0 l/m 0,0 km/h (0 Bft) W 270 0 min -6,0 C -5,5 C 0,0 km/h (0 Bft)
06.03.2021 00:40 -3,7 C 5,2 C -4,3 C -4,3 C -5,6 C 0,0 C 84 % 89 % 1033,8 hPa 0,0 l/m 0,0 km/h (0 Bft) W 270 0 min -6,0 C -5,6 C 0,0 km/h (0 Bft)
06.03.2021 00:45 -3,7 C 5,2 C -4,2 C -4,4 C -5,7 C 0,0 C 84 % 89 % 1033,8 hPa 0,0 l/m 0,0 km/h (0 Bft) W 270 0 min -6,0 C -5,7 C 0,0 km/h (0 Bft)
06.03.2021 00:50 -3,7 C 5,2 C -4,3 C -4,3 C -5,5 C 0,0 C 84 % 89 % 1033,9 hPa 0,0 l/m 0,0 km/h (0 Bft) W 270 0 min -6,0 C -5,5 C 0,0 km/h (0 Bft)
06.03.2021 00:55 -3,7 C 5,2 C -4,2 C -4,3 C -5,4 C 0,0 C 84 % 89 % 1033,9 hPa 0,0 l/m 0,0 km/h (0 Bft) W 270 0 min -6,0 C -5,4 C 0,0 km/h (0 Bft)
06.03.2021 01:00 -3,7 C 5,2 C -4,2 C -4,3 C -5,5 C 0,0 C 84 % 89 % 1033,9 hPa 0,0 l/m 0,0 km/h (0 Bft) W 270 0 min -6,0 C -5,5 C 0,0 km/h (0 Bft)
06.03.2021 01:05 -3,7 C 5,1 C -4,2 C -4,3 C -5,4 C 0,0 C 84 % 89 % 1033,9 hPa 0,0 l/m 0,0 km/h (0 Bft) W 270 0 min -6,0 C -5,4 C 0,0 km/h (0 Bft)
06.03.2021 01:10 -3,7 C 5,1 C -4,2 C -4,3 C -5,6 C 0,0 C 84 % 89 % 1033,9 hPa 0,0 l/m 0,0 km/h (0 Bft) W 270 0 min -6,0 C -5,6 C 0,0 km/h (0 Bft)
06.03.2021 01:15 -3,8 C 5,1 C -4,3 C -4,5 C -5,8 C 0,0 C 84 % 89 % 1033,9 hPa 0,0 l/m 0,0 km/h (0 Bft) W 270 0 min -6,1 C -5,8 C 0,0 km/h (0 Bft)
06.03.2021 01:20 -3,9 C 5,1 C -4,3 C -4,5 C -5,8 C 0,0 C 84 % 89 % 1033,9 hPa 0,0 l/m 0,0 km/h (0 Bft) W 270 0 min -6,2 C -5,8 C 0,0 km/h (0 Bft)
06.03.2021 01:25 -3,9 C 5,1 C -4,3 C -4,5 C -5,7 C 0,0 C 84 % 89 % 1033,9 hPa 0,0 l/m 0,0 km/h (0 Bft) W 270 0 min -6,2 C -5,7 C 0,0 km/h (0 Bft)
06.03.2021 01:30 -3,9 C 5,1 C -4,4 C -4,6 C -5,9 C 0,0 C 84 % 89 % 1033,9 hPa 0,0 l/m 0,0 km/h (0 Bft) W 270 0 min -6,2 C -5,9 C 0,0 km/h (0 Bft)
06.03.2021 01:35 -4,0 C 5,1 C -4,4 C -4,7 C -6,0 C 0,0 C 84 % 89 % 1033,9 hPa 0,0 l/m 0,0 km/h (0 Bft) W 270 0 min -6,3 C -6,0 C 0,0 km/h (0 Bft)
06.03.2021 01:40 -3,9 C 5,1 C -4,5 C -4,6 C -6,1 C 0,0 C 84 % 89 % 1033,9 hPa 0,0 l/m 0,0 km/h (0 Bft) W 270 0 min -6,2 C -6,1 C 0,0 km/h (0 Bft)
06.03.2021 01:45 -4,1 C 5,1 C -4,5 C -4,7 C -6,0 C 0,0 C 84 % 89 % 1033,9 hPa 0,0 l/m 0,0 km/h (0 Bft) W 270 0 min -6,4 C -6,0 C 0,0 km/h (0 Bft)
06.03.2021 01:50 -3,9 C 5,1 C -4,4 C -4,5 C -5,8 C 0,0 C 85 % 89 % 1034,1 hPa 0,0 l/m 0,0 km/h (0 Bft) W 270 0 min -6,0 C -5,8 C 0,0 km/h (0 Bft)
06.03.2021 01:55 -3,9 C 5,1 C -4,5 C -4,5 C -5,7 C 0,0 C 85 % 89 % 1034,1 hPa 0,0 l/m 0,0 km/h (0 Bft) W 270 0 min -6,0 C -5,7 C 0,0 km/h (0 Bft)
06.03.2021 02:00 -3,9 C 5,1 C -4,4 C -4,5 C -5,7 C 0,0 C 85 % 89 % 1034,1 hPa 0,0 l/m 0,0 km/h (0 Bft) W 270 0 min -6,0 C -5,7 C 0,0 km/h (0 Bft)
06.03.2021 02:05 -3,9 C 5,1 C -4,4 C -4,5 C -5,7 C 0,0 C 85 % 89 % 1034,1 hPa 0,0 l/m 0,0 km/h (0 Bft) W 270 0 min -6,0 C -5,7 C 0,0 km/h (0 Bft)
06.03.2021 02:10 -3,9 C 5,0 C -4,4 C -4,5 C -5,8 C 0,0 C 85 % 89 % 1034,2 hPa 0,0 l/m 0,0 km/h (0 Bft) W 270 0 min -6,0 C -5,8 C 0,0 km/h (0 Bft)
06.03.2021 02:15 -3,9 C 5,0 C -4,4 C -4,5 C -5,8 C 0,0 C 85 % 90 % 1034,2 hPa 0,0 l/m 0,0 km/h (0 Bft) W 270 0 min -6,0 C -5,8 C 0,0 km/h (0 Bft)
06.03.2021 02:20 -3,9 C 5,0 C -4,3 C -4,4 C -5,5 C 0,0 C 85 % 90 % 1034,2 hPa 0,0 l/m 0,0 km/h (0 Bft) W-SW 247 0 min -6,0 C -5,5 C 0,0 km/h (0 Bft)
06.03.2021 02:25 -3,7 C 5,0 C -4,3 C -4,3 C -5,4 C 0,0 C 85 % 90 % 1034,2 hPa 0,0 l/m 0,0 km/h (0 Bft) W-SW 247 0 min -5,8 C -5,4 C 0,0 km/h (0 Bft)
06.03.2021 02:30 -3,8 C 5,0 C -4,3 C -4,3 C -5,4 C 0,0 C 85 % 90 % 1033,7 hPa 0,0 l/m 0,0 km/h (0 Bft) W-SW 247 0 min -5,9 C -5,4 C 0,0 km/h (0 Bft)
06.03.2021 02:35 -3,8 C 5,0 C -4,3 C -4,3 C -5,4 C 0,0 C 86 % 90 % 1033,7 hPa 0,0 l/m 0,0 km/h (0 Bft) W-SW 247 0 min -5,8 C -5,4 C 0,0 km/h (0 Bft)
06.03.2021 02:40 -3,7 C 5,0 C -4,3 C -4,2 C -5,3 C 0,0 C 86 % 90 % 1033,7 hPa 0,0 l/m 0,0 km/h (0 Bft) W-SW 247 0 min -5,7 C -5,3 C 0,0 km/h (0 Bft)
06.03.2021 02:45 -3,7 C 4,9 C -4,3 C -4,2 C -5,3 C 0,0 C 86 % 90 % 1033,7 hPa 0,0 l/m 0,0 km/h (0 Bft) W-SW 247 0 min -5,7 C -5,3 C 0,0 km/h (0 Bft)
06.03.2021 02:50 -3,7 C 4,9 C -4,3 C -4,2 C -5,2 C 0,0 C 86 % 90 % 1033,5 hPa 0,0 l/m 0,0 km/h (0 Bft) W-SW 247 0 min -5,7 C -5,2 C 0,0 km/h (0 Bft)
06.03.2021 02:55 -3,7 C 4,9 C -4,3 C -4,2 C -5,2 C 0,0 C 86 % 90 % 1033,5 hPa 0,0 l/m 0,0 km/h (0 Bft) W-SW 247 0 min -5,7 C -5,2 C 0,0 km/h (0 Bft)
06.03.2021 03:00 -3,7 C 4,9 C -4,3 C -4,2 C -5,3 C 0,0 C 86 % 90 % 1033,5 hPa 0,0 l/m 0,0 km/h (0 Bft) W-SW 247 0 min -5,7 C -5,3 C 0,0 km/h (0 Bft)
06.03.2021 03:05 -3,7 C 4,9 C -4,3 C -4,3 C -5,4 C 0,0 C 86 % 90 % 1033,5 hPa 0,0 l/m 0,0 km/h (0 Bft) W-SW 247 0 min -5,7 C -5,4 C 0,0 km/h (0 Bft)
06.03.2021 03:10 -3,7 C 4,9 C -4,3 C -4,3 C -5,5 C 0,0 C 86 % 90 % 1033,5 hPa 0,0 l/m 0,0 km/h (0 Bft) W-SW 247 0 min -5,7 C -5,5 C 0,0 km/h (0 Bft)
06.03.2021 03:15 -3,7 C 4,9 C -4,3 C -4,3 C -5,4 C 0,0 C 86 % 90 % 1033,5 hPa 0,0 l/m 0,0 km/h (0 Bft) W-SW 247 0 min -5,7 C -5,4 C 0,0 km/h (0 Bft)
06.03.2021 03:20 -3,7 C 4,9 C -4,4 C -4,3 C -5,5 C 0,0 C 86 % 90 % 1033,5 hPa 0,0 l/m 0,0 km/h (0 Bft) W-SW 247 0 min -5,7 C -5,5 C 0,0 km/h (0 Bft)
06.03.2021 03:25 -3,7 C 4,9 C -4,4 C -4,3 C -5,5 C 0,0 C 86 % 90 % 1033,5 hPa 0,0 l/m 0,0 km/h (0 Bft) W-SW 247 0 min -5,7 C -5,5 C 0,0 km/h (0 Bft)
06.03.2021 03:30 -3,7 C 4,9 C -4,5 C -4,3 C -5,5 C 0,0 C 86 % 90 % 1033,8 hPa 0,0 l/m 0,0 km/h (0 Bft) W-SW 247 0 min -5,7 C -5,5 C 0,0 km/h (0 Bft)
06.03.2021 03:35 -3,7 C 4,9 C -4,5 C -4,3 C -5,5 C 0,0 C 86 % 90 % 1033,8 hPa 0,0 l/m 0,0 km/h (0 Bft) W-SW 247 0 min -5,7 C -5,5 C 0,0 km/h (0 Bft)
06.03.2021 03:40 -3,7 C 4,9 C -4,5 C -4,3 C -5,6 C 0,0 C 86 % 90 % 1033,8 hPa 0,0 l/m 0,0 km/h (0 Bft) W-SW 247 0 min -5,7 C -5,6 C 0,0 km/h (0 Bft)
06.03.2021 03:45 -3,8 C 4,9 C -4,5 C -4,4 C -5,5 C 0,0 C 86 % 90 % 1033,8 hPa 0,0 l/m 0,0 km/h (0 Bft) W-SW 247 0 min -5,8 C -5,5 C 0,0 km/h (0 Bft)
06.03.2021 03:50 -3,8 C 4,9 C -4,5 C -4,4 C -5,6 C 0,0 C 86 % 90 % 1033,9 hPa 0,0 l/m 0,0 km/h (0 Bft) W-SW 247 0 min -5,8 C -5,6 C 0,0 km/h (0 Bft)
06.03.2021 03:55 -3,7 C 4,9 C -4,5 C -4,4 C -5,7 C 0,0 C 86 % 90 % 1033,9 hPa 0,0 l/m 0,0 km/h (0 Bft) W-SW 247 0 min -5,7 C -5,7 C 0,0 km/h (0 Bft)
06.03.2021 04:00 -3,7 C 4,8 C -4,5 C -4,4 C -5,7 C 0,0 C 86 % 90 % 1033,9 hPa 0,0 l/m 0,0 km/h (0 Bft) W-SW 247 0 min -5,7 C -5,7 C 0,0 km/h (0 Bft)
06.03.2021 04:05 -3,9 C 4,8 C -4,5 C -4,5 C -5,8 C 0,0 C 86 % 90 % 1033,9 hPa 0,0 l/m 0,0 km/h (0 Bft) W-SW 247 0 min -5,9 C -5,8 C 0,0 km/h (0 Bft)
06.03.2021 04:10 -3,9 C 4,8 C -4,5 C -4,5 C -5,7 C 0,0 C 86 % 90 % 1033,4 hPa 0,0 l/m 0,0 km/h (0 Bft) W-SW 247 0 min -5,9 C -5,7 C 0,0 km/h (0 Bft)
06.03.2021 04:15 -3,9 C 4,8 C -4,4 C -4,5 C -5,6 C 0,0 C 86 % 90 % 1033,4 hPa 0,0 l/m 0,0 km/h (0 Bft) W-SW 247 0 min -5,9 C -5,6 C 0,0 km/h (0 Bft)
06.03.2021 04:20 -3,9 C 4,8 C -4,5 C -4,4 C -5,5 C 0,0 C 86 % 90 % 1033,4 hPa 0,0 l/m 0,0 km/h (0 Bft) W-SW 247 0 min -5,9 C -5,5 C 0,0 km/h (0 Bft)
06.03.2021 04:25 -3,9 C 4,8 C -4,5 C -4,5 C -5,6 C 0,0 C 86 % 90 % 1033,4 hPa 0,0 l/m 0,0 km/h (0 Bft) W-SW 247 0 min -5,9 C -5,6 C 0,0 km/h (0 Bft)
06.03.2021 04:30 -3,9 C 4,8 C -4,6 C -4,5 C -5,7 C 0,0 C 86 % 90 % 1033,4 hPa 0,0 l/m 0,0 km/h (0 Bft) W-SW 247 0 min -5,9 C -5,7 C 0,0 km/h (0 Bft)
06.03.2021 04:35 -3,9 C 4,8 C -4,6 C -4,5 C -5,7 C 0,0 C 86 % 90 % 1033,4 hPa 0,0 l/m 0,0 km/h (0 Bft) W-SW 247 0 min -5,9 C -5,7 C 0,0 km/h (0 Bft)
06.03.2021 04:40 -4,0 C 4,8 C -4,6 C -4,6 C -5,8 C 0,0 C 86 % 90 % 1033,4 hPa 0,0 l/m 0,0 km/h (0 Bft) W-SW 247 0 min -6,0 C -5,8 C 0,0 km/h (0 Bft)
06.03.2021 04:45 -4,0 C 4,8 C -4,6 C -4,6 C -5,8 C 0,0 C 86 % 90 % 1033,4 hPa 0,0 l/m 0,0 km/h (0 Bft) W-SW 247 0 min -6,0 C -5,8 C 0,0 km/h (0 Bft)
06.03.2021 04:50 -4,0 C 4,6 C -4,6 C -4,6 C -5,8 C 0,0 C 86 % 90 % 1033,4 hPa 0,0 l/m 0,0 km/h (0 Bft) W-SW 247 0 min -6,0 C -5,8 C 0,0 km/h (0 Bft)
06.03.2021 04:55 -4,0 C 4,6 C -4,6 C -4,6 C -5,8 C 0,0 C 86 % 90 % 1033,4 hPa 0,0 l/m 0,0 km/h (0 Bft) W-SW 247 0 min -6,0 C -5,8 C 0,0 km/h (0 Bft)
06.03.2021 05:00 -3,9 C 4,6 C -4,6 C -4,6 C -5,9 C 0,0 C 86 % 90 % 1033,4 hPa 0,0 l/m 0,0 km/h (0 Bft) W-SW 247 0 min -5,9 C -5,9 C 0,0 km/h (0 Bft)
06.03.2021 05:05 -3,9 C 4,6 C -4,6 C -4,6 C -5,9 C 0,0 C 86 % 90 % 1033,4 hPa 0,0 l/m 0,0 km/h (0 Bft) W-SW 247 0 min -5,9 C -5,9 C 0,0 km/h (0 Bft)
06.03.2021 05:10 -4,1 C 4,6 C -4,7 C -4,7 C -5,8 C 0,0 C 86 % 90 % 1033,8 hPa 0,0 l/m 0,0 km/h (0 Bft) W-SW 247 0 min -6,1 C -5,8 C 0,0 km/h (0 Bft)
06.03.2021 05:15 -4,1 C 4,6 C -4,7 C -4,7 C -5,9 C 0,0 C 86 % 90 % 1033,8 hPa 0,0 l/m 0,0 km/h (0 Bft) W-SW 247 0 min -6,1 C -5,9 C 0,0 km/h (0 Bft)
06.03.2021 05:20 -4,1 C 4,6 C -4,5 C -4,7 C -5,9 C 0,0 C 86 % 91 % 1033,8 hPa 0,0 l/m 0,0 km/h (0 Bft) W-SW 247 0 min -6,1 C -5,9 C 0,0 km/h (0 Bft)
06.03.2021 05:25 -4,1 C 4,6 C -4,6 C -4,7 C -5,9 C 0,0 C 86 % 90 % 1033,8 hPa 0,0 l/m 0,0 km/h (0 Bft) W-SW 247 0 min -6,1 C -5,9 C 0,0 km/h (0 Bft)
06.03.2021 05:30 -4,1 C 4,6 C -4,7 C -4,7 C -5,9 C 0,0 C 86 % 90 % 1034,1 hPa 0,0 l/m 0,0 km/h (0 Bft) W-SW 247 0 min -6,1 C -5,9 C 0,0 km/h (0 Bft)
06.03.2021 05:35 -4,1 C 4,6 C -4,7 C -4,7 C -5,8 C 0,0 C 86 % 90 % 1034,1 hPa 0,0 l/m 0,0 km/h (0 Bft) W-SW 247 0 min -6,1 C -5,8 C 0,0 km/h (0 Bft)
06.03.2021 05:40 -4,1 C 4,6 C -4,6 C -4,7 C -5,8 C 0,0 C 86 % 91 % 1034,1 hPa 0,0 l/m 0,0 km/h (0 Bft) W-SW 247 0 min -6,1 C -5,8 C 0,0 km/h (0 Bft)
06.03.2021 05:45 -4,1 C 4,5 C -4,6 C -4,7 C -5,8 C 0,0 C 86 % 91 % 1034,1 hPa 0,0 l/m 0,0 km/h (0 Bft) W-SW 247 0 min -6,1 C -5,8 C 0,0 km/h (0 Bft)
06.03.2021 05:50 -4,1 C 4,5 C -4,7 C -4,7 C -5,8 C 0,0 C 86 % 91 % 1033,9 hPa 0,0 l/m 0,0 km/h (0 Bft) W-SW 247 0 min -6,1 C -5,8 C 0,0 km/h (0 Bft)
06.03.2021 05:55 -4,1 C 4,5 C -4,6 C -4,7 C -5,9 C 0,0 C 86 % 91 % 1033,9 hPa 0,0 l/m 0,0 km/h (0 Bft) W-SW 247 0 min -6,1 C -5,9 C 0,0 km/h (0 Bft)
06.03.2021 06:00 -4,1 C 4,5 C -4,5 C -4,6 C -5,7 C 0,0 C 86 % 91 % 1033,9 hPa 0,0 l/m 0,0 km/h (0 Bft) W-SW 247 0 min -6,1 C -5,7 C 0,0 km/h (0 Bft)
06.03.2021 06:05 -4,0 C 4,5 C -4,4 C -4,5 C -5,5 C 0,0 C 87 % 91 % 1033,9 hPa 0,0 l/m 0,0 km/h (0 Bft) W-SW 247 0 min -5,8 C -5,5 C 0,0 km/h (0 Bft)
06.03.2021 06:10 -3,7 C 4,5 C -4,3 C -4,2 C -5,3 C 0,0 C 87 % 91 % 1033,9 hPa 0,0 l/m 0,0 km/h (0 Bft) W-SW 247 0 min -5,5 C -5,3 C 0,0 km/h (0 Bft)
06.03.2021 06:15 -3,7 C 4,5 C -4,2 C -4,2 C -5,2 C 0,0 C 87 % 91 % 1033,9 hPa 0,0 l/m 0,0 km/h (0 Bft) W-SW 247 0 min -5,5 C -5,2 C 0,0 km/h (0 Bft)
06.03.2021 06:20 -3,7 C 4,5 C -4,4 C -4,2 C -5,2 C 0,0 C 87 % 90 % 1033,9 hPa 0,0 l/m 0,0 km/h (0 Bft) W-SW 247 0 min -5,5 C -5,2 C 0,0 km/h (0 Bft)
06.03.2021 06:25 -3,7 C 4,5 C -4,3 C -4,3 C -5,4 C 0,0 C 87 % 90 % 1033,9 hPa 0,0 l/m 0,0 km/h (0 Bft) W-SW 247 0 min -5,5 C -5,4 C 0,0 km/h (0 Bft)
06.03.2021 06:30 -3,7 C 4,4 C -4,4 C -4,3 C -5,5 C 0,0 C 87 % 90 % 1034,1 hPa 0,0 l/m 0,0 km/h (0 Bft) W-SW 247 0 min -5,5 C -5,5 C 0,0 km/h (0 Bft)
06.03.2021 06:35 -3,9 C 4,4 C -4,4 C -4,5 C -5,6 C 0,0 C 87 % 90 % 1034,1 hPa 0,0 l/m 0,0 km/h (0 Bft) W-SW 247 0 min -5,7 C -5,6 C 0,0 km/h (0 Bft)
06.03.2021 06:40 -3,9 C 4,4 C -4,4 C -4,5 C -5,7 C 0,0 C 86 % 90 % 1034,1 hPa 0,0 l/m 0,0 km/h (0 Bft) W-SW 247 0 min -5,9 C -5,7 C 0,0 km/h (0 Bft)
06.03.2021 06:45 -4,0 C 4,4 C -4,5 C -4,6 C -5,7 C 0,0 C 86 % 90 % 1034,1 hPa 0,0 l/m 0,0 km/h (0 Bft) W-SW 247 0 min -6,0 C -5,7 C 0,0 km/h (0 Bft)
06.03.2021 06:50 -4,0 C 4,4 C -4,4 C -4,6 C -5,8 C 0,0 C 86 % 90 % 1033,8 hPa 0,0 l/m 0,0 km/h (0 Bft) W-SW 247 0 min -6,0 C -5,8 C 0,0 km/h (0 Bft)
06.03.2021 06:55 -4,0 C 4,4 C -4,4 C -4,6 C -5,7 C 0,0 C 86 % 90 % 1033,8 hPa 0,0 l/m 0,0 km/h (0 Bft) W-SW 247 0 min -6,0 C -5,7 C 0,0 km/h (0 Bft)
06.03.2021 07:00 -4,0 C 4,4 C -4,3 C -4,5 C -5,6 C 0,0 C 86 % 90 % 1033,8 hPa 0,0 l/m 0,0 km/h (0 Bft) W-SW 247 0 min -6,0 C -5,6 C 0,0 km/h (0 Bft)
06.03.2021 07:05 -4,0 C 4,4 C -4,2 C -4,5 C -5,5 C 0,0 C 87 % 90 % 1033,8 hPa 0,0 l/m 0,0 km/h (0 Bft) N-NW 337 0 min -5,8 C -5,5 C 0,0 km/h (0 Bft)
06.03.2021 07:10 -3,9 C 4,4 C -4,1 C -4,1 C -4,4 C 0,0 C 87 % 90 % 1034,1 hPa 0,0 l/m 0,0 km/h (0 Bft) SW 225 0 min -5,7 C -4,4 C 0,0 km/h (0 Bft)
06.03.2021 07:15 -3,7 C 4,4 C -4,0 C -3,4 C -3,4 C 0,3 C 87 % 90 % 1034,1 hPa 0,0 l/m 0,0 km/h (0 Bft) S-SW 202 0 min -5,5 C -3,4 C 0,0 km/h (0 Bft)
06.03.2021 07:20 -3,6 C 4,4 C -3,9 C -2,1 C -2,1 C 1,5 C 87 % 90 % 1034,1 hPa 0,0 l/m 0,0 km/h (0 Bft) S-SW 202 5 min -5,4 C -2,1 C 0,0 km/h (0 Bft)
06.03.2021 07:25 -3,5 C 4,3 C -3,9 C -1,4 C -1,4 C 2,1 C 87 % 90 % 1034,1 hPa 0,0 l/m 0,0 km/h (0 Bft) S-SW 202 5 min -5,3 C -1,4 C 0,0 km/h (0 Bft)
06.03.2021 07:30 -3,3 C 4,3 C -3,8 C -0,9 C -0,9 C 2,4 C 87 % 90 % 1034,5 hPa 0,0 l/m 0,0 km/h (0 Bft) S 180 5 min -5,1 C -0,9 C 0,0 km/h (0 Bft)
06.03.2021 07:35 -3,2 C 4,3 C -3,7 C -0,6 C -0,6 C 2,6 C 87 % 90 % 1034,5 hPa 0,0 l/m 0,0 km/h (0 Bft) S 180 5 min -5,0 C -0,6 C 0,0 km/h (0 Bft)
06.03.2021 07:40 -2,9 C 4,2 C -3,5 C 0,0 C 0,0 C 2,9 C 87 % 90 % 1034,5 hPa 0,0 l/m 0,0 km/h (0 Bft) S 180 5 min -4,8 C 0,0 C 0,0 km/h (0 Bft)
06.03.2021 07:45 -2,7 C 4,2 C -3,4 C 0,1 C 0,1 C 2,8 C 87 % 90 % 1034,5 hPa 0,0 l/m 0,0 km/h (0 Bft) S 180 5 min -4,6 C 0,1 C 0,0 km/h (0 Bft)
06.03.2021 07:50 -2,5 C 4,2 C -3,3 C 0,4 C 0,4 C 2,9 C 87 % 90 % 1034,4 hPa 0,0 l/m 0,0 km/h (0 Bft) S 180 5 min -4,4 C 0,4 C 0,0 km/h (0 Bft)
06.03.2021 07:55 -2,5 C 4,2 C -3,2 C 0,1 C 0,1 C 2,6 C 87 % 90 % 1034,4 hPa 0,0 l/m 0,0 km/h (0 Bft) S 180 5 min -4,4 C 0,1 C 0,0 km/h (0 Bft)
06.03.2021 08:00 -2,3 C 4,2 C -3,0 C 0,3 C 0,3 C 2,6 C 87 % 90 % 1034,4 hPa 0,0 l/m 0,0 km/h (0 Bft) S 180 5 min -4,2 C 0,3 C 0,0 km/h (0 Bft)
06.03.2021 08:05 -2,1 C 4,2 C -2,9 C -0,3 C -0,3 C 1,8 C 87 % 90 % 1034,4 hPa 0,0 l/m 0,0 km/h (0 Bft) S 180 0 min -4,0 C -0,3 C 0,0 km/h (0 Bft)
06.03.2021 08:10 -2,1 C 4,2 C -2,8 C -0,7 C -0,7 C 1,4 C 87 % 90 % 1034,4 hPa 0,0 l/m 0,0 km/h (0 Bft) S 180 0 min -4,0 C -0,7 C 0,0 km/h (0 Bft)
06.03.2021 08:15 -2,1 C 4,2 C -2,5 C -1,0 C -1,0 C 1,1 C 87 % 90 % 1034,4 hPa 0,0 l/m 0,0 km/h (0 Bft) S 180 0 min -4,0 C -1,0 C 0,0 km/h (0 Bft)
06.03.2021 08:20 -2,1 C 4,2 C -2,1 C -1,1 C -1,1 C 1,0 C 87 % 90 % 1034,4 hPa 0,0 l/m 0,0 km/h (0 Bft) S 180 0 min -4,0 C -1,1 C 0,0 km/h (0 Bft)
06.03.2021 08:25 -2,0 C 4,2 C -2,1 C -1,3 C -1,3 C 0,7 C 87 % 89 % 1034,4 hPa 0,0 l/m 0,0 km/h (0 Bft) S-SO 157 0 min -3,9 C -1,3 C 0,0 km/h (0 Bft)
06.03.2021 08:30 -1,8 C 4,2 C -1,9 C -0,9 C -0,9 C 0,9 C 86 % 89 % 1034,9 hPa 0,0 l/m 0,0 km/h (0 Bft) S 180 0 min -3,8 C -0,9 C 0,0 km/h (0 Bft)
06.03.2021 08:35 -1,7 C 4,2 C -1,8 C -0,9 C -0,9 C 0,8 C 86 % 89 % 1034,9 hPa 0,0 l/m 0,0 km/h (0 Bft) S-SO 157 0 min -3,7 C -0,9 C 0,0 km/h (0 Bft)
06.03.2021 08:40 -1,3 C 4,2 C -1,5 C -1,2 C -1,2 C 0,1 C 86 % 89 % 1034,9 hPa 0,0 l/m 0,0 km/h (0 Bft) S 180 0 min -3,3 C -1,2 C 0,0 km/h (0 Bft)
06.03.2021 08:45 -1,3 C 4,2 C -1,4 C -1,1 C -1,1 C 0,2 C 86 % 89 % 1034,9 hPa 0,0 l/m 0,0 km/h (0 Bft) S-SW 202 0 min -3,3 C -1,1 C 0,0 km/h (0 Bft)
06.03.2021 08:50 -1,1 C 4,1 C -1,2 C 0,0 C 0,0 C 1,1 C 86 % 89 % 1035,1 hPa 0,0 l/m 0,0 km/h (0 Bft) SW 225 0 min -3,1 C 0,0 C 0,0 km/h (0 Bft)
06.03.2021 08:55 -0,9 C 4,1 C -0,5 C 0,1 C 0,1 C 1,0 C 86 % 88 % 1035,1 hPa 0,0 l/m 0,0 km/h (0 Bft) SW 225 0 min -2,9 C 0,1 C 0,0 km/h (0 Bft)
06.03.2021 09:00 -0,9 C 4,1 C 0,2 C 0,2 C 0,2 C 1,1 C 86 % 87 % 1035,1 hPa 0,0 l/m 0,0 km/h (0 Bft) S 180 0 min -2,9 C 0,2 C 3,1 km/h (1 Bft)
06.03.2021 09:05 -0,9 C 4,1 C 0,1 C -0,3 C -0,3 C 0,6 C 85 % 86 % 1035,1 hPa 0,0 l/m 0,2 km/h (0 Bft) SW 225 0 min -3,1 C -0,3 C 0,0 km/h (0 Bft)
06.03.2021 09:10 -0,7 C 4,1 C 0,7 C 0,1 C 0,1 C 0,8 C 85 % 85 % 1034,8 hPa 0,0 l/m 0,5 km/h (0 Bft) S-SO 157 0 min -2,9 C 0,1 C 3,2 km/h (1 Bft)
06.03.2021 09:15 -0,5 C 4,1 C 0,9 C 0,6 C 0,6 C 1,1 C 84 % 84 % 1034,8 hPa 0,0 l/m 0,5 km/h (0 Bft) W-SW 247 0 min -2,9 C 0,6 C 0,0 km/h (0 Bft)
06.03.2021 09:20 -0,5 C 4,1 C 1,4 C 0,7 C 0,7 C 1,2 C 84 % 83 % 1034,8 hPa 0,0 l/m 0,2 km/h (0 Bft) S-SO 157 0 min -2,9 C 0,7 C 0,0 km/h (0 Bft)
06.03.2021 09:25 -0,4 C 4,1 C 1,9 C 0,6 C 0,6 C 1,0 C 84 % 83 % 1034,8 hPa 0,0 l/m 0,0 km/h (0 Bft) S 180 0 min -2,8 C 0,6 C 0,0 km/h (0 Bft)
06.03.2021 09:30 -0,3 C 4,1 C 2,9 C 0,7 C 0,7 C 1,0 C 83 % 81 % 1035,1 hPa 0,0 l/m 0,3 km/h (0 Bft) SW 225 0 min -2,8 C 0,7 C 6,4 km/h (2 Bft)
06.03.2021 09:35 -0,2 C 4,1 C 3,4 C 2,1 C 2,1 C 2,3 C 82 % 79 % 1035,1 hPa 0,0 l/m 0,2 km/h (0 Bft) S 180 0 min -2,9 C 2,1 C 0,0 km/h (0 Bft)
06.03.2021 09:40 0,0 C 4,1 C 3,6 C 3,0 C 3,0 C 3,0 C 82 % 76 % 1035,1 hPa 0,0 l/m 0,2 km/h (0 Bft) S 180 0 min -2,7 C 3,0 C 0,0 km/h (0 Bft)
06.03.2021 09:45 0,2 C 4,1 C 3,2 C 2,5 C 2,5 C 2,3 C 82 % 75 % 1035,1 hPa 0,0 l/m 0,0 km/h (0 Bft) S 180 0 min -2,5 C 2,5 C 0,0 km/h (0 Bft)
06.03.2021 09:50 0,3 C 4,1 C 2,2 C 2,0 C 2,0 C 1,7 C 81 % 75 % 1034,9 hPa 0,0 l/m 0,2 km/h (0 Bft) SO 135 0 min -2,6 C 2,0 C 2,7 km/h (1 Bft)
06.03.2021 09:55 0,5 C 4,1 C 1,9 C 2,6 C 2,6 C 2,1 C 81 % 76 % 1034,9 hPa 0,0 l/m 0,2 km/h (0 Bft) SW 225 0 min -2,4 C 2,6 C 0,0 km/h (0 Bft)
06.03.2021 10:00 0,7 C 4,1 C 1,5 C 3,1 C 3,1 C 2,4 C 80 % 76 % 1034,9 hPa 0,0 l/m 0,2 km/h (0 Bft) S-SO 157 0 min -2,3 C 3,1 C 0,0 km/h (0 Bft)
06.03.2021 10:05 0,8 C 4,0 C 1,5 C 5,1 C 5,1 C 4,3 C 80 % 77 % 1034,9 hPa 0,0 l/m 0,2 km/h (0 Bft) NO 45 5 min -2,2 C 5,1 C 0,0 km/h (0 Bft)
06.03.2021 10:10 1,1 C 4,0 C 1,4 C 4,6 C 4,6 C 3,5 C 79 % 77 % 1035,4 hPa 0,0 l/m 0,3 km/h (0 Bft) SW 225 5 min -2,1 C 4,6 C 0,0 km/h (0 Bft)
06.03.2021 10:15 1,1 C 4,0 C 1,3 C 4,7 C 4,7 C 3,6 C 78 % 77 % 1035,4 hPa 0,0 l/m 0,5 km/h (0 Bft) SW 225 5 min -2,3 C 4,7 C 5,0 km/h (1 Bft)
06.03.2021 10:20 1,2 C 4,0 C 1,2 C 5,7 C 5,7 C 4,5 C 77 % 77 % 1035,4 hPa 0,0 l/m 0,5 km/h (0 Bft) W-SW 247 5 min -2,4 C 5,7 C 0,0 km/h (0 Bft)
06.03.2021 10:25 1,3 C 4,0 C 1,3 C 4,5 C 4,5 C 3,2 C 77 % 77 % 1035,4 hPa 0,0 l/m 0,3 km/h (0 Bft) S-SW 202 0 min -2,3 C 4,5 C 1,8 km/h (1 Bft)
06.03.2021 10:30 1,4 C 4,0 C 1,3 C 3,1 C 3,1 C 1,7 C 76 % 77 % 1035,1 hPa 0,0 l/m 1,1 km/h (1 Bft) S 180 0 min -2,4 C 3,1 C 0,0 km/h (0 Bft)
06.03.2021 10:35 1,6 C 4,0 C 1,3 C 2,8 C 2,8 C 1,2 C 76 % 77 % 1035,1 hPa 0,0 l/m 1,4 km/h (1 Bft) S 180 0 min -2,2 C 2,8 C 2,9 km/h (1 Bft)
06.03.2021 10:40 1,9 C 4,0 C 1,4 C 3,8 C 3,8 C 1,9 C 76 % 77 % 1035,1 hPa 0,0 l/m 1,4 km/h (1 Bft) S-SW 202 0 min -1,9 C 3,8 C 6,9 km/h (2 Bft)
06.03.2021 10:45 1,8 C 4,0 C 1,4 C 4,0 C 4,0 C 2,2 C 75 % 77 % 1035,1 hPa 0,0 l/m 2,4 km/h (1 Bft) SW 225 0 min -2,1 C 4,0 C 3,9 km/h (1 Bft)
06.03.2021 10:50 2,1 C 4,0 C 1,5 C 3,4 C 3,4 C 1,3 C 74 % 77 % 1035,1 hPa 0,0 l/m 2,4 km/h (1 Bft) SW 225 0 min -2,0 C 3,4 C 7,9 km/h (2 Bft)
06.03.2021 10:55 2,1 C 4,0 C 1,5 C 3,5 C 3,5 C 1,4 C 73 % 77 % 1035,1 hPa 0,0 l/m 2,7 km/h (1 Bft) S 180 0 min -2,2 C 3,5 C 4,2 km/h (1 Bft)
06.03.2021 11:00 2,3 C 4,0 C 1,7 C 3,3 C 3,3 C 1,0 C 72 % 76 % 1035,1 hPa 0,0 l/m 3,9 km/h (1 Bft) SW 225 0 min -2,2 C 3,3 C 10,0 km/h (2 Bft)
06.03.2021 11:05 2,4 C 4,0 C 1,9 C 3,5 C 3,5 C 1,1 C 70 % 74 % 1035,1 hPa 0,0 l/m 3,2 km/h (1 Bft) SW 225 0 min -2,5 C 3,5 C 5,5 km/h (1 Bft)
06.03.2021 11:10 2,6 C 4,0 C 1,9 C 3,9 C 3,9 C 1,3 C 69 % 74 % 1034,5 hPa 0,0 l/m 3,5 km/h (1 Bft) S 180 0 min -2,5 C 3,9 C 11,6 km/h (2 Bft)
06.03.2021 11:15 2,8 C 4,0 C 2,0 C 4,8 C 4,8 C 2,0 C 68 % 72 % 1034,5 hPa 0,0 l/m 4,0 km/h (1 Bft) W-SW 247 0 min -2,5 C 4,8 C 4,8 km/h (1 Bft)
06.03.2021 11:20 2,9 C 4,0 C 2,1 C 5,6 C 5,6 C 2,7 C 66 % 72 % 1034,5 hPa 0,0 l/m 4,3 km/h (1 Bft) W-SW 247 0 min -2,8 C 5,6 C 16,3 km/h (3 Bft)
06.03.2021 11:25 3,0 C 4,0 C 2,3 C 5,9 C 5,9 C 2,9 C 66 % 72 % 1034,5 hPa 0,0 l/m 3,7 km/h (1 Bft) S-SW 202 0 min -2,7 C 5,9 C 7,2 km/h (2 Bft)
06.03.2021 11:30 3,1 C 4,0 C 2,3 C 5,5 C 5,5 C 2,4 C 65 % 71 % 1034,6 hPa 0,0 l/m 3,7 km/h (1 Bft) W 270 0 min -2,8 C 5,5 C 4,3 km/h (1 Bft)
06.03.2021 11:35 3,3 C 4,0 C 2,4 C 5,9 C 5,9 C 2,6 C 65 % 71 % 1034,6 hPa 0,0 l/m 3,2 km/h (1 Bft) W 270 0 min -2,6 C 5,9 C 0,0 km/h (0 Bft)
06.03.2021 11:40 3,5 C 4,0 C 2,6 C 6,8 C 6,8 C 3,3 C 65 % 71 % 1034,6 hPa 0,0 l/m 1,6 km/h (1 Bft) S 180 5 min -2,4 C 6,8 C 7,9 km/h (2 Bft)
06.03.2021 11:45 3,5 C 4,0 C 2,7 C 7,2 C 7,2 C 3,7 C 63 % 69 % 1034,6 hPa 0,0 l/m 2,7 km/h (1 Bft) S-SW 202 5 min -2,9 C 7,2 C 8,4 km/h (2 Bft)
06.03.2021 11:50 3,5 C 4,1 C 2,8 C 6,8 C 6,8 C 3,3 C 60 % 66 % 1034,6 hPa 0,0 l/m 6,0 km/h (2 Bft) S-SW 202 5 min -3,5 C 5,8 C 6,1 km/h (2 Bft)
06.03.2021 11:55 3,5 C 4,1 C 2,8 C 6,5 C 6,5 C 3,0 C 60 % 66 % 1034,6 hPa 0,0 l/m 6,8 km/h (2 Bft) S-SW 202 0 min -3,5 C 5,2 C 6,8 km/h (2 Bft)
06.03.2021 12:00 3,9 C 4,1 C 3,0 C 8,1 C 8,1 C 4,2 C 60 % 66 % 1034,6 hPa 0,0 l/m 4,0 km/h (1 Bft) S-SW 202 5 min -3,1 C 8,1 C 0,0 km/h (0 Bft)
06.03.2021 12:05 3,9 C 4,1 C 3,0 C 8,7 C 8,7 C 4,8 C 59 % 65 % 1034,6 hPa 0,0 l/m 3,4 km/h (1 Bft) W-SW 247 5 min -3,4 C 8,7 C 7,4 km/h (2 Bft)
06.03.2021 12:10 4,0 C 4,1 C 3,1 C 8,4 C 8,4 C 4,4 C 59 % 65 % 1034,0 hPa 0,0 l/m 4,8 km/h (1 Bft) S 180 5 min -3,3 C 8,0 C 6,4 km/h (2 Bft)
06.03.2021 12:15 4,0 C 4,1 C 3,1 C 8,3 C 8,3 C 4,3 C 58 % 63 % 1034,0 hPa 0,0 l/m 5,1 km/h (1 Bft) SW 225 5 min -3,5 C 7,8 C 8,4 km/h (2 Bft)
06.03.2021 12:20 3,9 C 4,1 C 3,1 C 7,9 C 7,9 C 4,0 C 57 % 63 % 1034,0 hPa 0,0 l/m 5,8 km/h (2 Bft) SW 225 5 min -3,8 C 7,1 C 9,7 km/h (2 Bft)
06.03.2021 12:25 4,0 C 4,1 C 3,2 C 7,9 C 7,9 C 3,9 C 57 % 63 % 1034,0 hPa 0,0 l/m 5,8 km/h (2 Bft) S-SW 202 5 min -3,7 C 7,1 C 9,7 km/h (2 Bft)
06.03.2021 12:30 4,1 C 4,1 C 3,3 C 9,0 C 9,0 C 4,9 C 57 % 63 % 1034,0 hPa 0,0 l/m 4,2 km/h (1 Bft) W-SW 247 5 min -3,6 C 9,0 C 0,0 km/h (0 Bft)
06.03.2021 12:35 4,1 C 4,1 C 3,4 C 9,4 C 9,4 C 5,3 C 57 % 63 % 1034,0 hPa 0,0 l/m 3,5 km/h (1 Bft) SW 225 5 min -3,6 C 9,4 C 5,6 km/h (1 Bft)
06.03.2021 12:40 4,2 C 4,1 C 3,4 C 8,8 C 8,8 C 4,6 C 57 % 62 % 1034,0 hPa 0,0 l/m 4,7 km/h (1 Bft) S-SW 202 5 min -3,5 C 8,5 C 11,3 km/h (2 Bft)
06.03.2021 12:45 4,1 C 4,1 C 3,4 C 7,9 C 7,9 C 3,8 C 56 % 62 % 1034,0 hPa 0,0 l/m 6,1 km/h (2 Bft) SW 225 5 min -3,9 C 7,0 C 6,1 km/h (2 Bft)
06.03.2021 12:50 4,3 C 4,1 C 3,5 C 7,8 C 7,8 C 3,5 C 56 % 63 % 1034,1 hPa 0,0 l/m 6,1 km/h (2 Bft) S 180 5 min -3,7 C 6,9 C 3,5 km/h (1 Bft)
06.03.2021 12:55 4,3 C 4,1 C 3,5 C 8,4 C 8,4 C 4,1 C 56 % 62 % 1034,1 hPa 0,0 l/m 4,8 km/h (1 Bft) S 180 5 min -3,7 C 8,0 C 3,7 km/h (1 Bft)
06.03.2021 13:00 4,4 C 4,1 C 3,8 C 8,8 C 8,8 C 4,4 C 56 % 61 % 1034,1 hPa 0,0 l/m 4,7 km/h (1 Bft) SW 225 5 min -3,6 C 8,5 C 2,9 km/h (1 Bft)
06.03.2021 13:05 4,5 C 4,1 C 3,8 C 8,7 C 8,7 C 4,2 C 56 % 61 % 1034,1 hPa 0,0 l/m 5,1 km/h (1 Bft) S-SW 202 5 min -3,5 C 8,2 C 10,0 km/h (2 Bft)
06.03.2021 13:10 4,4 C 4,1 C 4,0 C 9,2 C 9,2 C 4,8 C 56 % 62 % 1033,8 hPa 0,0 l/m 4,7 km/h (1 Bft) SW 225 5 min -3,6 C 8,9 C 13,0 km/h (3 Bft)
06.03.2021 13:15 4,5 C 4,1 C 4,1 C 9,2 C 9,2 C 4,7 C 55 % 60 % 1033,8 hPa 0,0 l/m 4,8 km/h (1 Bft) S 180 5 min -3,7 C 8,9 C 8,9 km/h (2 Bft)
06.03.2021 13:20 4,4 C 4,1 C 4,0 C 8,2 C 8,2 C 3,8 C 54 % 60 % 1033,8 hPa 0,0 l/m 6,1 km/h (2 Bft) S 180 5 min -4,1 C 7,4 C 7,2 km/h (2 Bft)
06.03.2021 13:25 4,5 C 4,2 C 4,0 C 8,5 C 8,5 C 4,0 C 54 % 60 % 1033,8 hPa 0,0 l/m 5,8 km/h (2 Bft) W-NW 292 5 min -4,0 C 7,8 C 0,0 km/h (0 Bft)
06.03.2021 13:30 4,4 C 4,2 C 4,1 C 8,2 C 8,2 C 3,8 C 54 % 58 % 1034,1 hPa 0,0 l/m 5,6 km/h (1 Bft) W-SW 247 5 min -4,1 C 7,5 C 11,1 km/h (2 Bft)
06.03.2021 13:35 4,4 C 4,2 C 4,0 C 8,3 C 8,3 C 3,9 C 54 % 59 % 1034,1 hPa 0,0 l/m 5,0 km/h (1 Bft) S 180 5 min -4,1 C 7,8 C 4,5 km/h (1 Bft)
06.03.2021 13:40 4,5 C 4,2 C 4,1 C 8,3 C 8,3 C 3,8 C 53 % 58 % 1034,1 hPa 0,0 l/m 5,5 km/h (1 Bft) S 180 5 min -4,2 C 7,7 C 4,8 km/h (1 Bft)
06.03.2021 13:45 4,5 C 4,2 C 4,2 C 8,7 C 8,7 C 4,2 C 53 % 59 % 1034,1 hPa 0,0 l/m 5,1 km/h (1 Bft) SW 225 5 min -4,2 C 8,2 C 4,8 km/h (1 Bft)
06.03.2021 13:50 4,5 C 4,2 C 4,3 C 9,3 C 9,3 C 4,8 C 53 % 59 % 1033,6 hPa 0,0 l/m 4,0 km/h (1 Bft) SW 225 5 min -4,2 C 9,3 C 5,3 km/h (1 Bft)
06.03.2021 13:55 4,7 C 4,2 C 4,4 C 9,3 C 9,3 C 4,6 C 54 % 58 % 1033,6 hPa 0,0 l/m 4,7 km/h (1 Bft) SW 225 5 min -3,8 C 9,1 C 8,7 km/h (2 Bft)
06.03.2021 14:00 4,7 C 4,2 C 4,5 C 9,3 C 9,3 C 4,6 C 54 % 58 % 1033,6 hPa 0,0 l/m 5,5 km/h (1 Bft) S 180 5 min -3,8 C 8,8 C 7,6 km/h (2 Bft)
06.03.2021 14:05 4,8 C 4,2 C 4,6 C 9,3 C 9,3 C 4,5 C 54 % 58 % 1033,6 hPa 0,0 l/m 5,5 km/h (1 Bft) S-SW 202 5 min -3,7 C 8,8 C 6,4 km/h (2 Bft)
06.03.2021 14:10 4,8 C 4,2 C 4,6 C 9,4 C 9,4 C 4,6 C 53 % 57 % 1033,4 hPa 0,0 l/m 5,0 km/h (1 Bft) SW 225 5 min -4,0 C 9,1 C 6,0 km/h (2 Bft)
06.03.2021 14:15 5,1 C 4,2 C 4,7 C 9,6 C 9,6 C 4,5 C 54 % 57 % 1033,4 hPa 0,0 l/m 4,8 km/h (1 Bft) S-SO 157 5 min -3,4 C 9,4 C 0,0 km/h (0 Bft)
06.03.2021 14:20 5,1 C 4,2 C 4,8 C 9,6 C 9,6 C 4,5 C 54 % 57 % 1033,4 hPa 0,0 l/m 4,8 km/h (1 Bft) SW 225 5 min -3,4 C 9,4 C 17,7 km/h (3 Bft)
06.03.2021 14:25 5,0 C 4,2 C 4,8 C 9,1 C 9,1 C 4,1 C 53 % 57 % 1033,4 hPa 0,0 l/m 5,1 km/h (1 Bft) S 180 5 min -3,8 C 8,7 C 9,5 km/h (2 Bft)
06.03.2021 14:30 5,1 C 4,3 C 4,9 C 8,8 C 8,8 C 3,7 C 54 % 59 % 1033,4 hPa 0,0 l/m 6,3 km/h (2 Bft) SW 225 5 min -3,4 C 8,0 C 6,8 km/h (2 Bft)
06.03.2021 14:35 5,1 C 4,3 C 5,1 C 9,7 C 9,7 C 4,6 C 54 % 58 % 1033,4 hPa 0,0 l/m 4,5 km/h (1 Bft) SW 225 5 min -3,4 C 9,7 C 2,1 km/h (1 Bft)
06.03.2021 14:40 5,5 C 4,3 C 5,5 C 10,7 C 10,7 C 5,2 C 55 % 59 % 1033,4 hPa 0,0 l/m 2,7 km/h (1 Bft) S 180 5 min -2,8 C 10,7 C 1,6 km/h (1 Bft)
06.03.2021 14:45 5,6 C 4,3 C 5,7 C 11,4 C 11,4 C 5,8 C 56 % 59 % 1033,4 hPa 0,0 l/m 2,1 km/h (1 Bft) SW 225 5 min -2,5 C 11,4 C 3,1 km/h (1 Bft)
06.03.2021 14:50 5,6 C 4,4 C 5,7 C 11,0 C 11,0 C 5,4 C 55 % 58 % 1033,0 hPa 0,0 l/m 4,0 km/h (1 Bft) O 90 5 min -2,7 C 11,0 C 10,0 km/h (2 Bft)
06.03.2021 14:55 5,6 C 4,3 C 5,7 C 10,3 C 10,3 C 4,7 C 55 % 59 % 1033,0 hPa 0,0 l/m 5,3 km/h (1 Bft) W-SW 247 5 min -2,7 C 10,3 C 1,8 km/h (1 Bft)
06.03.2021 15:00 5,9 C 4,4 C 5,9 C 11,0 C 11,0 C 5,1 C 56 % 59 % 1033,0 hPa 0,0 l/m 3,7 km/h (1 Bft) SW 225 5 min -2,2 C 11,0 C 0,0 km/h (0 Bft)
06.03.2021 15:05 6,1 C 4,4 C 5,8 C 11,4 C 11,4 C 5,3 C 56 % 59 % 1033,0 hPa 0,0 l/m 2,1 km/h (1 Bft) SW 225 5 min -2,0 C 11,4 C 2,7 km/h (1 Bft)
06.03.2021 15:10 6,1 C 4,4 C 5,8 C 11,6 C 11,6 C 5,5 C 56 % 60 % 1032,8 hPa 0,0 l/m 1,1 km/h (1 Bft) S 180 5 min -2,0 C 11,6 C 4,5 km/h (1 Bft)
06.03.2021 15:15 6,0 C 4,4 C 5,6 C 11,4 C 11,4 C 5,4 C 56 % 59 % 1032,8 hPa 0,0 l/m 1,3 km/h (1 Bft) SW 225 5 min -2,1 C 11,4 C 4,8 km/h (1 Bft)
06.03.2021 15:20 5,6 C 4,4 C 5,2 C 9,5 C 9,5 C 3,9 C 55 % 60 % 1032,8 hPa 0,0 l/m 2,6 km/h (1 Bft) N-NW 337 5 min -2,7 C 9,5 C 0,0 km/h (0 Bft)
06.03.2021 15:25 5,6 C 4,4 C 5,0 C 9,2 C 9,2 C 3,6 C 56 % 59 % 1032,8 hPa 0,0 l/m 3,5 km/h (1 Bft) W-SW 247 5 min -2,5 C 9,2 C 9,3 km/h (2 Bft)
06.03.2021 15:30 5,1 C 4,5 C 4,6 C 7,1 C 7,1 C 2,0 C 56 % 60 % 1032,9 hPa 0,0 l/m 2,3 km/h (1 Bft) S 180 0 min -2,9 C 7,1 C 0,0 km/h (0 Bft)
06.03.2021 15:35 5,2 C 4,5 C 4,8 C 7,6 C 7,6 C 2,4 C 57 % 62 % 1032,9 hPa 0,0 l/m 1,9 km/h (1 Bft) SW 225 0 min -2,6 C 7,6 C 9,5 km/h (2 Bft)
06.03.2021 15:40 5,5 C 4,5 C 5,0 C 8,6 C 8,6 C 3,1 C 57 % 61 % 1032,9 hPa 0,0 l/m 3,1 km/h (1 Bft) SW 225 0 min -2,3 C 8,6 C 5,1 km/h (1 Bft)
06.03.2021 15:45 5,6 C 4,5 C 5,0 C 8,4 C 8,4 C 2,8 C 56 % 60 % 1032,9 hPa 0,0 l/m 4,5 km/h (1 Bft) SW 225 0 min -2,5 C 8,4 C 7,6 km/h (2 Bft)
06.03.2021 15:50 5,3 C 4,5 C 4,9 C 8,6 C 8,6 C 3,3 C 56 % 61 % 1032,4 hPa 0,0 l/m 3,7 km/h (1 Bft) W 270 5 min -2,8 C 8,6 C 4,0 km/h (1 Bft)
06.03.2021 15:55 5,3 C 4,5 C 4,6 C 8,1 C 8,1 C 2,8 C 56 % 60 % 1032,4 hPa 0,0 l/m 2,7 km/h (1 Bft) SW 225 0 min -2,8 C 8,1 C 3,2 km/h (1 Bft)
06.03.2021 16:00 4,8 C 4,5 C 4,1 C 6,6 C 6,6 C 1,8 C 56 % 60 % 1032,4 hPa 0,0 l/m 1,6 km/h (1 Bft) SW 225 0 min -3,2 C 6,6 C 3,2 km/h (1 Bft)
06.03.2021 16:05 4,7 C 4,5 C 3,9 C 5,8 C 5,8 C 1,1 C 56 % 61 % 1032,4 hPa 0,0 l/m 1,3 km/h (1 Bft) S-SW 202 0 min -3,3 C 5,8 C 3,4 km/h (1 Bft)
06.03.2021 16:10 4,5 C 4,5 C 3,7 C 5,1 C 5,1 C 0,6 C 56 % 62 % 1032,4 hPa 0,0 l/m 0,6 km/h (0 Bft) SW 225 0 min -3,5 C 5,1 C 0,0 km/h (0 Bft)
06.03.2021 16:15 4,4 C 4,6 C 3,6 C 4,8 C 4,8 C 0,4 C 57 % 63 % 1032,4 hPa 0,0 l/m 0,5 km/h (0 Bft) S 180 0 min -3,4 C 4,8 C 2,6 km/h (1 Bft)
06.03.2021 16:20 4,4 C 4,6 C 3,7 C 4,9 C 4,9 C 0,5 C 57 % 63 % 1032,4 hPa 0,0 l/m 0,3 km/h (0 Bft) SW 225 0 min -3,4 C 4,9 C 2,1 km/h (1 Bft)
06.03.2021 16:25 4,6 C 4,6 C 3,8 C 5,7 C 5,7 C 1,1 C 58 % 63 % 1032,4 hPa 0,0 l/m 0,6 km/h (0 Bft) S 180 0 min -2,9 C 5,7 C 3,4 km/h (1 Bft)
06.03.2021 16:30 4,8 C 4,6 C 4,1 C 6,4 C 6,4 C 1,6 C 57 % 62 % 1032,4 hPa 0,0 l/m 2,3 km/h (1 Bft) S-SW 202 0 min -3,0 C 6,4 C 3,1 km/h (1 Bft)
06.03.2021 16:35 4,9 C 4,6 C 4,2 C 6,6 C 6,6 C 1,7 C 57 % 61 % 1032,4 hPa 0,0 l/m 2,3 km/h (1 Bft) S 180 0 min -2,9 C 6,6 C 6,4 km/h (2 Bft)
06.03.2021 16:40 5,0 C 4,6 C 4,4 C 6,8 C 6,8 C 1,8 C 56 % 61 % 1032,4 hPa 0,0 l/m 1,8 km/h (1 Bft) SW 225 0 min -3,0 C 6,8 C 0,0 km/h (0 Bft)
06.03.2021 16:45 5,0 C 4,6 C 4,5 C 7,1 C 7,1 C 2,1 C 57 % 62 % 1032,4 hPa 0,0 l/m 1,6 km/h (1 Bft) S 180 5 min -2,8 C 7,1 C 0,0 km/h (0 Bft)
06.03.2021 16:50 5,2 C 4,6 C 4,7 C 7,8 C 7,8 C 2,6 C 57 % 62 % 1032,1 hPa 0,0 l/m 0,5 km/h (0 Bft) W 270 5 min -2,6 C 7,8 C 4,0 km/h (1 Bft)
06.03.2021 16:55 5,3 C 4,6 C 4,7 C 7,9 C 7,9 C 2,6 C 57 % 62 % 1032,1 hPa 0,0 l/m 0,3 km/h (0 Bft) W 270 5 min -2,5 C 7,9 C 0,0 km/h (0 Bft)
06.03.2021 17:00 5,3 C 4,6 C 4,8 C 7,8 C 7,8 C 2,5 C 57 % 62 % 1032,1 hPa 0,0 l/m 0,5 km/h (0 Bft) W-SW 247 5 min -2,5 C 7,8 C 8,0 km/h (2 Bft)
06.03.2021 17:05 5,2 C 4,6 C 4,7 C 7,3 C 7,3 C 2,1 C 57 % 61 % 1032,1 hPa 0,0 l/m 0,5 km/h (0 Bft) W-NW 292 5 min -2,6 C 7,3 C 2,6 km/h (1 Bft)
06.03.2021 17:10 4,9 C 4,6 C 4,2 C 6,3 C 6,3 C 1,4 C 57 % 62 % 1032,1 hPa 0,0 l/m 0,5 km/h (0 Bft) SW 225 5 min -2,9 C 6,3 C 6,3 km/h (2 Bft)
06.03.2021 17:15 4,8 C 4,6 C 4,1 C 5,7 C 5,7 C 0,9 C 57 % 63 % 1032,1 hPa 0,0 l/m 0,8 km/h (0 Bft) W-SW 247 0 min -3,0 C 5,7 C 1,8 km/h (1 Bft)
06.03.2021 17:20 4,6 C 4,6 C 3,9 C 5,1 C 5,1 C 0,5 C 58 % 64 % 1032,1 hPa 0,0 l/m 0,8 km/h (0 Bft) S 180 0 min -2,9 C 5,1 C 0,0 km/h (0 Bft)
06.03.2021 17:25 4,4 C 4,6 C 3,7 C 4,6 C 4,6 C 0,2 C 59 % 64 % 1032,1 hPa 0,0 l/m 0,3 km/h (0 Bft) S 180 0 min -2,9 C 4,6 C 0,0 km/h (0 Bft)
06.03.2021 17:30 4,4 C 4,7 C 3,5 C 4,6 C 4,6 C 0,2 C 59 % 65 % 1031,7 hPa 0,0 l/m 0,2 km/h (0 Bft) S 180 0 min -2,9 C 4,6 C 0,0 km/h (0 Bft)
06.03.2021 17:35 4,2 C 4,7 C 3,3 C 4,5 C 4,5 C 0,3 C 60 % 65 % 1031,7 hPa 0,0 l/m 0,0 km/h (0 Bft) W-NW 292 0 min -2,9 C 4,5 C 0,0 km/h (0 Bft)
06.03.2021 17:40 4,2 C 4,7 C 3,1 C 4,2 C 4,2 C 0,0 C 60 % 65 % 1031,7 hPa 0,0 l/m 0,0 km/h (0 Bft) SW 225 0 min -2,9 C 4,2 C 0,0 km/h (0 Bft)
06.03.2021 17:45 4,1 C 4,7 C 3,1 C 4,3 C 4,3 C 0,2 C 60 % 66 % 1031,7 hPa 0,0 l/m 0,2 km/h (0 Bft) S-SW 202 0 min -3,0 C 4,3 C 4,8 km/h (1 Bft)
06.03.2021 17:50 4,0 C 4,7 C 2,9 C 4,0 C 4,0 C 0,0 C 60 % 66 % 1032,2 hPa 0,0 l/m 0,2 km/h (0 Bft) S-SW 202 0 min -3,0 C 4,0 C 0,0 km/h (0 Bft)
06.03.2021 17:55 3,9 C 4,7 C 2,6 C 3,8 C 3,5 C 0,0 C 60 % 66 % 1032,2 hPa 0,0 l/m 0,2 km/h (0 Bft) W-SW 247 0 min -3,1 C 3,5 C 3,7 km/h (1 Bft)
06.03.2021 18:00 3,7 C 4,7 C 2,3 C 3,4 C 2,9 C 0,0 C 60 % 67 % 1032,2 hPa 0,0 l/m 0,3 km/h (0 Bft) SW 225 0 min -3,3 C 2,9 C 0,0 km/h (0 Bft)
06.03.2021 18:05 3,6 C 4,7 C 2,1 C 3,2 C 2,5 C 0,0 C 61 % 68 % 1032,2 hPa 0,0 l/m 0,3 km/h (0 Bft) W-SW 247 0 min -3,2 C 2,5 C 0,0 km/h (0 Bft)
06.03.2021 18:10 3,4 C 4,7 C 1,8 C 2,9 C 1,8 C 0,0 C 61 % 68 % 1032,1 hPa 0,0 l/m 0,0 km/h (0 Bft) W-SW 247 0 min -3,4 C 1,8 C 0,0 km/h (0 Bft)
06.03.2021 18:15 3,2 C 4,7 C 1,5 C 2,6 C 1,5 C 0,0 C 62 % 68 % 1032,1 hPa 0,0 l/m 0,0 km/h (0 Bft) W-SW 247 0 min -3,4 C 1,5 C 0,0 km/h (0 Bft)
06.03.2021 18:20 2,9 C 4,7 C 1,3 C 2,2 C 0,8 C 0,0 C 62 % 69 % 1032,1 hPa 0,0 l/m 0,0 km/h (0 Bft) W-SW 247 0 min -3,6 C 0,8 C 0,0 km/h (0 Bft)
06.03.2021 18:25 2,7 C 4,8 C 1,1 C 1,9 C 0,4 C 0,0 C 62 % 70 % 1032,1 hPa 0,0 l/m 0,0 km/h (0 Bft) W-SW 247 0 min -3,8 C 0,4 C 0,0 km/h (0 Bft)
06.03.2021 18:30 2,4 C 4,8 C 0,8 C 1,6 C 0,1 C 0,0 C 62 % 71 % 1032,0 hPa 0,0 l/m 0,0 km/h (0 Bft) W-SW 247 0 min -4,1 C 0,1 C 0,0 km/h (0 Bft)
06.03.2021 18:35 2,3 C 4,8 C 0,7 C 1,5 C -0,2 C 0,0 C 62 % 71 % 1032,0 hPa 0,0 l/m 0,0 km/h (0 Bft) W-SW 247 0 min -4,2 C -0,2 C 0,0 km/h (0 Bft)
06.03.2021 18:40 2,0 C 4,8 C 0,3 C 1,1 C -0,6 C 0,0 C 63 % 72 % 1032,0 hPa 0,0 l/m 0,0 km/h (0 Bft) W-SW 247 0 min -4,3 C -0,6 C 0,0 km/h (0 Bft)
06.03.2021 18:45 1,9 C 4,8 C 0,2 C 1,1 C -0,6 C 0,0 C 64 % 72 % 1032,0 hPa 0,0 l/m 0,0 km/h (0 Bft) W-SW 247 0 min -4,2 C -0,6 C 0,0 km/h (0 Bft)
06.03.2021 18:50 1,6 C 4,8 C 0,1 C 0,8 C -0,8 C 0,0 C 65 % 74 % 1032,3 hPa 0,0 l/m 0,0 km/h (0 Bft) W-SW 247 0 min -4,3 C -0,8 C 0,0 km/h (0 Bft)
06.03.2021 18:55 1,5 C 4,8 C 0,1 C 0,7 C -0,8 C 0,0 C 66 % 75 % 1032,3 hPa 0,0 l/m 0,0 km/h (0 Bft) W-SW 247 0 min -4,1 C -0,8 C 0,0 km/h (0 Bft)
06.03.2021 19:00 1,3 C 4,8 C -0,1 C 0,6 C -0,9 C 0,0 C 67 % 75 % 1032,3 hPa 0,0 l/m 0,0 km/h (0 Bft) W-SW 247 0 min -4,1 C -0,9 C 0,0 km/h (0 Bft)
06.03.2021 19:05 1,2 C 4,8 C -0,1 C 0,5 C -0,9 C 0,0 C 67 % 76 % 1032,3 hPa 0,0 l/m 0,0 km/h (0 Bft) W-SW 247 0 min -4,2 C -0,9 C 0,0 km/h (0 Bft)
06.03.2021 19:10 1,0 C 4,8 C -0,2 C 0,4 C -0,9 C 0,0 C 68 % 76 % 1032,4 hPa 0,0 l/m 0,0 km/h (0 Bft) W-SW 247 0 min -4,2 C -0,9 C 0,0 km/h (0 Bft)
06.03.2021 19:15 1,1 C 4,8 C -0,2 C 0,4 C -0,9 C 0,0 C 68 % 77 % 1032,4 hPa 0,0 l/m 0,0 km/h (0 Bft) W-SW 247 0 min -4,1 C -0,9 C 0,0 km/h (0 Bft)
06.03.2021 19:20 0,9 C 4,8 C -0,2 C 0,3 C -0,9 C 0,0 C 69 % 77 % 1032,4 hPa 0,0 l/m 0,0 km/h (0 Bft) W-SW 247 0 min -4,1 C -0,9 C 0,0 km/h (0 Bft)
06.03.2021 19:25 0,8 C 4,8 C -0,1 C 0,3 C -0,8 C 0,0 C 69 % 77 % 1032,4 hPa 0,0 l/m 0,0 km/h (0 Bft) W-SW 247 0 min -4,2 C -0,8 C 0,0 km/h (0 Bft)
06.03.2021 19:30 0,7 C 4,8 C -0,1 C 0,2 C -0,8 C 0,0 C 70 % 78 % 1032,0 hPa 0,0 l/m 0,0 km/h (0 Bft) W-SW 247 0 min -4,1 C -0,8 C 0,0 km/h (0 Bft)
06.03.2021 19:35 0,7 C 4,8 C -0,1 C 0,2 C -0,7 C 0,0 C 70 % 78 % 1032,0 hPa 0,0 l/m 0,0 km/h (0 Bft) W-SW 247 0 min -4,1 C -0,7 C 0,0 km/h (0 Bft)
06.03.2021 19:40 0,6 C 4,8 C -0,1 C 0,2 C -0,6 C 0,0 C 71 % 79 % 1032,0 hPa 0,0 l/m 0,0 km/h (0 Bft) W-NW 292 0 min -4,0 C -0,6 C 0,0 km/h (0 Bft)
06.03.2021 19:45 0,7 C 4,8 C -0,1 C 0,3 C -0,4 C 0,0 C 72 % 79 % 1032,0 hPa 0,0 l/m 0,0 km/h (0 Bft) W-NW 292 0 min -3,8 C -0,4 C 0,0 km/h (0 Bft)
06.03.2021 19:50 0,7 C 4,8 C 0,0 C 0,3 C -0,4 C 0,0 C 72 % 79 % 1031,9 hPa 0,0 l/m 0,0 km/h (0 Bft) W-NW 292 0 min -3,8 C -0,4 C 0,0 km/h (0 Bft)
06.03.2021 19:55 0,7 C 4,8 C 0,0 C 0,4 C -0,3 C 0,0 C 73 % 79 % 1031,9 hPa 0,0 l/m 0,0 km/h (0 Bft) W 270 0 min -3,6 C -0,3 C 0,0 km/h (0 Bft)
06.03.2021 20:00 0,5 C 4,8 C -0,1 C 0,2 C -0,4 C 0,0 C 73 % 79 % 1031,9 hPa 0,0 l/m 0,0 km/h (0 Bft) S 180 0 min -3,8 C -0,4 C 0,0 km/h (0 Bft)
06.03.2021 20:05 0,5 C 4,8 C -0,1 C 0,2 C -0,5 C 0,0 C 73 % 79 % 1031,9 hPa 0,0 l/m 0,0 km/h (0 Bft) S 180 0 min -3,8 C -0,5 C 0,0 km/h (0 Bft)
06.03.2021 20:10 0,4 C 4,8 C -0,1 C 0,1 C -0,6 C 0,0 C 73 % 79 % 1032,2 hPa 0,0 l/m 0,0 km/h (0 Bft) S 180 0 min -3,9 C -0,6 C 0,0 km/h (0 Bft)
06.03.2021 20:15 0,4 C 4,8 C -0,1 C 0,0 C -0,7 C 0,0 C 73 % 80 % 1032,2 hPa 0,0 l/m 0,0 km/h (0 Bft) S 180 0 min -3,9 C -0,7 C 0,0 km/h (0 Bft)
06.03.2021 20:20 0,3 C 4,8 C -0,1 C 0,0 C -0,7 C 0,0 C 74 % 80 % 1032,2 hPa 0,0 l/m 0,0 km/h (0 Bft) S 180 0 min -3,8 C -0,7 C 0,0 km/h (0 Bft)
06.03.2021 20:25 0,3 C 4,8 C -0,1 C 0,0 C -0,7 C 0,0 C 74 % 80 % 1032,2 hPa 0,0 l/m 0,0 km/h (0 Bft) S 180 0 min -3,8 C -0,7 C 0,0 km/h (0 Bft)
06.03.2021 20:30 0,3 C 4,8 C -0,1 C 0,0 C -0,6 C 0,0 C 74 % 80 % 1031,8 hPa 0,0 l/m 0,0 km/h (0 Bft) S 180 0 min -3,8 C -0,6 C 0,0 km/h (0 Bft)
06.03.2021 20:35 0,3 C 4,9 C -0,1 C 0,0 C -0,5 C 0,0 C 74 % 80 % 1031,8 hPa 0,0 l/m 0,0 km/h (0 Bft) S 180 0 min -3,8 C -0,5 C 0,0 km/h (0 Bft)
06.03.2021 20:40 0,3 C 4,9 C 0,1 C 0,1 C -0,3 C 0,0 C 75 % 81 % 1031,8 hPa 0,0 l/m 0,0 km/h (0 Bft) S 180 0 min -3,6 C -0,3 C 0,0 km/h (0 Bft)
06.03.2021 20:45 0,3 C 4,9 C 0,1 C 0,1 C -0,3 C 0,0 C 76 % 81 % 1031,8 hPa 0,0 l/m 0,0 km/h (0 Bft) S 180 0 min -3,4 C -0,3 C 0,0 km/h (0 Bft)
06.03.2021 20:50 0,3 C 4,9 C 0,0 C 0,1 C -0,3 C 0,0 C 76 % 81 % 1031,7 hPa 0,0 l/m 0,0 km/h (0 Bft) S 180 0 min -3,4 C -0,3 C 0,0 km/h (0 Bft)
06.03.2021 20:55 0,2 C 4,9 C 0,0 C 0,0 C -0,3 C 0,0 C 76 % 81 % 1031,7 hPa 0,0 l/m 0,0 km/h (0 Bft) S 180 0 min -3,5 C -0,3 C 0,0 km/h (0 Bft)
06.03.2021 21:00 0,2 C 4,9 C 0,0 C 0,0 C -0,3 C 0,0 C 76 % 81 % 1031,7 hPa 0,0 l/m 0,0 km/h (0 Bft) S 180 0 min -3,5 C -0,3 C 0,0 km/h (0 Bft)
06.03.2021 21:05 0,1 C 4,9 C -0,1 C -0,1 C -0,4 C 0,0 C 76 % 81 % 1031,7 hPa 0,0 l/m 0,0 km/h (0 Bft) SW 225 0 min -3,6 C -0,4 C 0,0 km/h (0 Bft)
06.03.2021 21:10 0,1 C 4,9 C -0,1 C -0,1 C -0,4 C 0,0 C 76 % 82 % 1031,6 hPa 0,0 l/m 0,0 km/h (0 Bft) W-SW 247 0 min -3,6 C -0,4 C 0,0 km/h (0 Bft)
06.03.2021 21:15 0,1 C 4,9 C -0,1 C -0,1 C -0,4 C 0,0 C 77 % 82 % 1031,6 hPa 0,0 l/m 0,0 km/h (0 Bft) W-SW 247 0 min -3,4 C -0,4 C 0,0 km/h (0 Bft)
06.03.2021 21:20 0,0 C 4,9 C -0,1 C -0,1 C -0,4 C 0,0 C 77 % 82 % 1031,6 hPa 0,0 l/m 0,0 km/h (0 Bft) S 180 0 min -3,5 C -0,4 C 0,0 km/h (0 Bft)
06.03.2021 21:25 0,1 C 4,9 C -0,1 C 0,0 C -0,3 C 0,0 C 77 % 82 % 1031,6 hPa 0,0 l/m 0,0 km/h (0 Bft) S 180 0 min -3,4 C -0,3 C 0,0 km/h (0 Bft)
06.03.2021 21:30 0,1 C 4,9 C 0,0 C 0,0 C -0,3 C 0,0 C 78 % 82 % 1032,1 hPa 0,0 l/m 0,0 km/h (0 Bft) S 180 0 min -3,3 C -0,3 C 0,0 km/h (0 Bft)
06.03.2021 21:35 0,1 C 4,9 C 0,0 C 0,0 C -0,2 C 0,0 C 78 % 82 % 1032,1 hPa 0,0 l/m 0,0 km/h (0 Bft) S 180 0 min -3,3 C -0,2 C 0,0 km/h (0 Bft)
06.03.2021 21:40 0,1 C 4,9 C 0,0 C 0,0 C -0,2 C 0,0 C 78 % 82 % 1032,1 hPa 0,0 l/m 0,0 km/h (0 Bft) S 180 0 min -3,3 C -0,2 C 0,0 km/h (0 Bft)
06.03.2021 21:45 0,1 C 4,9 C 0,0 C 0,0 C -0,2 C 0,0 C 78 % 82 % 1032,1 hPa 0,0 l/m 0,0 km/h (0 Bft) S 180 0 min -3,3 C -0,2 C 0,0 km/h (0 Bft)
06.03.2021 21:50 0,1 C 4,9 C 0,0 C 0,0 C -0,2 C 0,0 C 78 % 82 % 1031,8 hPa 0,0 l/m 0,0 km/h (0 Bft) S 180 0 min -3,3 C -0,2 C 0,0 km/h (0 Bft)
06.03.2021 21:55 0,1 C 4,9 C 0,1 C 0,0 C -0,2 C 0,0 C 79 % 83 % 1031,8 hPa 0,0 l/m 0,0 km/h (0 Bft) S 180 0 min -3,1 C -0,2 C 0,0 km/h (0 Bft)
06.03.2021 22:00 0,1 C 4,9 C 0,1 C 0,0 C -0,2 C 0,0 C 79 % 82 % 1031,8 hPa 0,0 l/m 0,0 km/h (0 Bft) S 180 0 min -3,1 C -0,2 C 0,0 km/h (0 Bft)
06.03.2021 22:05 0,2 C 4,9 C 0,1 C 0,1 C -0,2 C 0,0 C 79 % 82 % 1031,8 hPa 0,0 l/m 0,0 km/h (0 Bft) W-SW 247 0 min -3,0 C -0,2 C 0,0 km/h (0 Bft)
06.03.2021 22:10 0,3 C 4,9 C 0,1 C 0,1 C -0,2 C 0,0 C 79 % 82 % 1031,2 hPa 0,0 l/m 0,0 km/h (0 Bft) S 180 0 min -2,9 C -0,2 C 0,0 km/h (0 Bft)
06.03.2021 22:15 0,3 C 4,9 C 0,1 C 0,2 C 0,0 C 0,0 C 79 % 82 % 1031,2 hPa 0,0 l/m 0,0 km/h (0 Bft) SO 135 0 min -2,9 C 0,0 C 0,0 km/h (0 Bft)
06.03.2021 22:20 0,3 C 4,9 C 0,2 C 0,2 C 0,0 C 0,0 C 79 % 82 % 1031,2 hPa 0,0 l/m 0,0 km/h (0 Bft) S-SW 202 0 min -2,9 C 0,0 C 0,0 km/h (0 Bft)
06.03.2021 22:25 0,3 C 4,8 C 0,2 C 0,2 C 0,1 C 0,0 C 79 % 82 % 1031,2 hPa 0,0 l/m 0,0 km/h (0 Bft) SW 225 0 min -2,9 C 0,1 C 0,0 km/h (0 Bft)
06.03.2021 22:30 0,3 C 4,9 C 0,2 C 0,2 C 0,1 C 0,0 C 78 % 82 % 1031,2 hPa 0,0 l/m 0,0 km/h (0 Bft) O-NO 67 0 min -3,1 C 0,1 C 0,0 km/h (0 Bft)
06.03.2021 22:35 0,3 C 4,8 C 0,2 C 0,2 C 0,1 C 0,0 C 79 % 82 % 1031,2 hPa 0,0 l/m 0,0 km/h (0 Bft) O-NO 67 0 min -2,9 C 0,1 C 0,0 km/h (0 Bft)
06.03.2021 22:40 0,3 C 4,8 C 0,2 C 0,2 C 0,1 C 0,0 C 78 % 82 % 1031,2 hPa 0,0 l/m 0,0 km/h (0 Bft) S 180 0 min -3,1 C 0,1 C 0,0 km/h (0 Bft)
06.03.2021 22:45 0,3 C 4,8 C 0,2 C 0,2 C 0,1 C 0,0 C 78 % 82 % 1031,2 hPa 0,0 l/m 0,0 km/h (0 Bft) S 180 0 min -3,1 C 0,1 C 0,0 km/h (0 Bft)
06.03.2021 22:50 0,3 C 4,8 C 0,1 C 0,2 C 0,0 C 0,0 C 78 % 82 % 1031,2 hPa 0,0 l/m 0,0 km/h (0 Bft) S 180 0 min -3,1 C 0,0 C 0,0 km/h (0 Bft)
06.03.2021 22:55 0,3 C 4,8 C 0,1 C 0,2 C 0,0 C 0,0 C 78 % 82 % 1031,2 hPa 0,0 l/m 0,0 km/h (0 Bft) S 180 0 min -3,1 C 0,0 C 0,0 km/h (0 Bft)
06.03.2021 23:00 0,3 C 4,8 C 0,1 C 0,2 C 0,0 C 0,0 C 78 % 82 % 1031,2 hPa 0,0 l/m 0,0 km/h (0 Bft) S 180 0 min -3,1 C 0,0 C 0,0 km/h (0 Bft)
06.03.2021 23:05 0,3 C 4,8 C 0,1 C 0,2 C 0,0 C 0,0 C 78 % 82 % 1031,2 hPa 0,0 l/m 0,0 km/h (0 Bft) S 180 0 min -3,1 C 0,0 C 0,0 km/h (0 Bft)
06.03.2021 23:10 0,3 C 4,8 C 0,1 C 0,2 C 0,0 C 0,0 C 78 % 82 % 1031,2 hPa 0,0 l/m 0,0 km/h (0 Bft) S 180 0 min -3,1 C 0,0 C 0,0 km/h (0 Bft)
06.03.2021 23:15 0,3 C 4,8 C 0,1 C 0,2 C 0,0 C 0,0 C 78 % 82 % 1031,2 hPa 0,0 l/m 0,0 km/h (0 Bft) S 180 0 min -3,1 C 0,0 C 0,0 km/h (0 Bft)
06.03.2021 23:20 0,2 C 4,8 C 0,1 C 0,1 C 0,0 C 0,0 C 78 % 82 % 1031,2 hPa 0,0 l/m 0,0 km/h (0 Bft) S 180 0 min -3,2 C 0,0 C 0,0 km/h (0 Bft)
06.03.2021 23:25 0,3 C 4,8 C 0,1 C 0,2 C 0,0 C 0,0 C 78 % 82 % 1031,2 hPa 0,0 l/m 0,0 km/h (0 Bft) SO 135 0 min -3,1 C 0,0 C 0,0 km/h (0 Bft)
06.03.2021 23:30 0,3 C 4,8 C 0,1 C 0,2 C 0,0 C 0,0 C 78 % 82 % 1031,4 hPa 0,0 l/m 0,0 km/h (0 Bft) S-SO 157 0 min -3,1 C 0,0 C 0,0 km/h (0 Bft)
06.03.2021 23:35 0,3 C 4,8 C 0,1 C 0,2 C 0,0 C 0,0 C 78 % 82 % 1031,4 hPa 0,0 l/m 0,0 km/h (0 Bft) S-SO 157 0 min -3,1 C 0,0 C 0,0 km/h (0 Bft)
06.03.2021 23:40 0,3 C 4,8 C 0,1 C 0,2 C 0,0 C 0,0 C 78 % 82 % 1031,4 hPa 0,0 l/m 0,0 km/h (0 Bft) O-SO 112 0 min -3,1 C 0,0 C 0,0 km/h (0 Bft)
06.03.2021 23:45 0,3 C 4,8 C 0,1 C 0,2 C 0,0 C 0,0 C 78 % 82 % 1031,4 hPa 0,0 l/m 0,0 km/h (0 Bft) SO 135 0 min -3,1 C 0,0 C 0,0 km/h (0 Bft)
06.03.2021 23:50 0,3 C 4,8 C 0,1 C 0,1 C -0,2 C 0,0 C 78 % 82 % 1030,9 hPa 0,0 l/m 0,0 km/h (0 Bft) SO 135 0 min -3,1 C -0,2 C 0,0 km/h (0 Bft)
06.03.2021 23:55 0,3 C 4,8 C 0,1 C 0,1 C -0,2 C 0,0 C 78 % 82 % 1030,9 hPa 0,0 l/m 0,0 km/h (0 Bft) SO 135 0 min -3,1 C -0,2 C 0,0 km/h (0 Bft)
_ Min-Zeit 01:45 10:05 05:10 01:35 01:40 00:00 13:40 14:10 23:50 - 00:00 - - - 01:45 01:40 00:00
Minimum _ -4,1 C 4,0 C -4,7 C -4,7 C -6,1 C 0,0 C 53 % 57 % 1030,9 hPa - 0,0 km/h (0 Bft) - - - -6,4 C -6,1 C 0,0 km/h (0 Bft)
_ Max-Zeit 15:05 00:00 15:00 15:10 15:10 14:45 06:05 05:20 10:10 00:00 11:55 - - 07:20 10:40 15:10 14:20
Maximum _ 6,1 C 5,2 C 5,9 C 11,6 C 11,6 C 5,8 C 87 % 91 % 1035,4 hPa 0,0 l/m 6,8 km/h
S-SW (2 Bft)
- - 5 min -1,9 C 11,6 C 17,7 km/h
SW (3 Bft)
Durchschnitt _ 0,2 C 4,6 C -0,2 C 1,2 C 0,6 C 1,2 C 74 % 78 % 1033,3 hPa #0,0 l/m 1,0 km/h (0 Bft) SW - #5:25 h -4,1 C 0,6 C 1,6 km/h (1 Bft)
2021 www.wetterstation-wechselburg.de